Bradford Regional Airport Bradford US
ICAO: KBFD
IATA: BFD
Category: Medium
Scheduled Services: Yes

Elevation: 2143 ft
TransAlt. 18000 ft.

Airport Communications:
ASOS:133.825
CLEVELAND CNTR:124.325
ALTOONA RDO:122.2
CTAF/UNICOM:123.075

KBFD Zoom In..

Runways:

(A) RW 05 length 4499 ft width 100 ft
---- / hdg 55

(B) RW 14 length 6306 ft width 150 ft
---- / hdg 145

(C) RW 23 length 4499 ft width 100 ft
---- / hdg 235

(D) RW 32 length 6306 ft width 150 ft
ILS 108.30 / hdg 325

Location; KBFD
Day. 19 / Time. 20.53 Zulu
* Altimeter: 29.96
* Temperature: 00° c. 32°f.
* Wind from: 300° Speed 19 kn with Gusts up to 28 kn.
Dewpoint: -04° c.
Visibility: 8 Statute Miles.
Clouds: Broken 2000 ft.
Clouds: Overcast 2500 ft.

KBFD 192053Z AUTO 30019G28KT 8SM BKN020 OVC025 00/M04 A2996 RMK AO2 PK WND 30029/2011 SNE43 SLP164 P0000 60000 T00001044 53009


Wind From 300°
Speed 19 kn.

  YouTube Music Video
 
jpsmedia.com for Web Design  worldairports.se 2018   terms of use